sensor_id;sensor_type;location;lat;lon;timestamp;pressure;altitude;pressure_sealevel;temperature;humidity
74895;BME280;63447;49.446;8.666;2023-09-08T00:01:44;100508.03;;;22.13;49.68
74895;BME280;63447;49.446;8.666;2023-09-08T00:04:09;100502.81;;;22.15;50.05
74895;BME280;63447;49.446;8.666;2023-09-08T00:06:35;100507.22;;;22.12;49.62
74895;BME280;63447;49.446;8.666;2023-09-08T00:09:02;100499.66;;;22.06;50.86
74895;BME280;63447;49.446;8.666;2023-09-08T00:11:28;100506.47;;;22.05;50.72
74895;BME280;63447;49.446;8.666;2023-09-08T00:13:54;100494.44;;;22.00;50.73
74895;BME280;63447;49.446;8.666;2023-09-08T00:16:19;100487.59;;;21.98;50.80
74895;BME280;63447;49.446;8.666;2023-09-08T00:18:45;100495.63;;;21.85;51.34
74895;BME280;63447;49.446;8.666;2023-09-08T00:21:15;100468.47;;;21.50;52.31
74895;BME280;63447;49.446;8.666;2023-09-08T00:23:40;100456.84;;;21.34;52.78
74895;BME280;63447;49.446;8.666;2023-09-08T00:26:05;100491.31;;;21.49;53.28
74895;BME280;63447;49.446;8.666;2023-09-08T00:28:31;100489.34;;;21.28;54.16
74895;BME280;63447;49.446;8.666;2023-09-08T00:30:57;100468.47;;;21.11;54.74
74895;BME280;63447;49.446;8.666;2023-09-08T00:33:25;100486.06;;;20.80;55.67
74895;BME280;63447;49.446;8.666;2023-09-08T00:35:52;100476.47;;;20.81;54.98
74895;BME280;63447;49.446;8.666;2023-09-08T00:38:19;100459.25;;;20.75;55.13
74895;BME280;63447;49.446;8.666;2023-09-08T00:40:44;100493.69;;;20.83;55.61
74895;BME280;63447;49.446;8.666;2023-09-08T00:43:09;100483.69;;;20.78;55.80
74895;BME280;63447;49.446;8.666;2023-09-08T00:45:38;100484.47;;;20.68;56.43
74895;BME280;63447;49.446;8.666;2023-09-08T00:48:06;100491.69;;;20.73;56.53
74895;BME280;63447;49.446;8.666;2023-09-08T00:50:31;100491.28;;;20.71;56.65
74895;BME280;63447;49.446;8.666;2023-09-08T00:52:57;100483.28;;;20.73;56.31
74895;BME280;63447;49.446;8.666;2023-09-08T00:55:25;100486.06;;;20.69;56.98
74895;BME280;63447;49.446;8.666;2023-09-08T00:57:50;100493.28;;;20.70;57.22
74895;BME280;63447;49.446;8.666;2023-09-08T01:00:16;100485.66;;;20.63;57.95
74895;BME280;63447;49.446;8.666;2023-09-08T01:02:43;100479.59;;;20.40;58.17
74895;BME280;63447;49.446;8.666;2023-09-08T01:05:11;100487.19;;;20.40;58.18
74895;BME280;63447;49.446;8.666;2023-09-08T01:07:39;100491.09;;;20.17;58.92
74895;BME280;63447;49.446;8.666;2023-09-08T01:10:08;100473.81;;;20.01;58.86
74895;BME280;63447;49.446;8.666;2023-09-08T01:12:34;100473.38;;;19.92;59.17
74895;BME280;63447;49.446;8.666;2023-09-08T01:15:01;100454.09;;;19.76;59.96
74895;BME280;63447;49.446;8.666;2023-09-08T01:17:26;100488.97;;;19.89;59.90
74895;BME280;63447;49.446;8.666;2023-09-08T01:19:55;100491.66;;;19.75;60.92
74895;BME280;63447;49.446;8.666;2023-09-08T01:22:36;100496.09;;;19.76;61.08
74895;BME280;63447;49.446;8.666;2023-09-08T01:27:37;100500.09;;;19.79;60.80
74895;BME280;63447;49.446;8.666;2023-09-08T01:30:04;100492.47;;;19.69;60.67
74895;BME280;63447;49.446;8.666;2023-09-08T01:32:34;100493.19;;;19.58;60.91
74895;BME280;63447;49.446;8.666;2023-09-08T01:34:59;100495.00;;;19.37;62.15
74895;BME280;63447;49.446;8.666;2023-09-08T01:37:25;100503.84;;;19.42;61.38
74895;BME280;63447;49.446;8.666;2023-09-08T01:39:51;100503.47;;;19.44;62.09
74895;BME280;63447;49.446;8.666;2023-09-08T01:42:19;100497.00;;;19.36;61.80
74895;BME280;63447;49.446;8.666;2023-09-08T01:44:44;100482.56;;;19.30;62.55
74895;BME280;63447;49.446;8.666;2023-09-08T01:47:09;100484.94;;;19.28;62.95
74895;BME280;63447;49.446;8.666;2023-09-08T01:49:35;100491.38;;;19.32;62.49
74895;BME280;63447;49.446;8.666;2023-09-08T01:52:00;100488.13;;;19.27;62.50
74895;BME280;63447;49.446;8.666;2023-09-08T01:54:28;100482.53;;;19.27;63.01
74895;BME280;63447;49.446;8.666;2023-09-08T01:56:53;100487.75;;;19.28;63.07
74895;BME280;63447;49.446;8.666;2023-09-08T01:59:18;100470.47;;;19.16;63.09
74895;BME280;63447;49.446;8.666;2023-09-08T02:01:46;100484.53;;;19.26;62.69
74895;BME280;63447;49.446;8.666;2023-09-08T02:04:11;100468.47;;;19.16;62.33
74895;BME280;63447;49.446;8.666;2023-09-08T02:06:36;100491.38;;;19.32;62.88
74895;BME280;63447;49.446;8.666;2023-09-08T02:09:02;100485.31;;;19.27;63.30
74895;BME280;63447;49.446;8.666;2023-09-08T02:11:30;100495.28;;;19.24;63.55
74895;BME280;63447;49.446;8.666;2023-09-08T02:13:58;100495.81;;;18.89;65.16
74895;BME280;63447;49.446;8.666;2023-09-08T02:16:23;100493.38;;;18.84;65.01
74895;BME280;63447;49.446;8.666;2023-09-08T02:18:50;100469.66;;;18.68;64.83
74895;BME280;63447;49.446;8.666;2023-09-08T02:21:15;100473.56;;;18.26;66.17
74895;BME280;63447;49.446;8.666;2023-09-08T02:23:43;100491.34;;;18.44;66.50
74895;BME280;63447;49.446;8.666;2023-09-08T02:26:08;100486.56;;;18.48;66.42
74895;BME280;63447;49.446;8.666;2023-09-08T02:28:33;100471.69;;;18.37;66.23
74895;BME280;63447;49.446;8.666;2023-09-08T02:30:59;100475.06;;;18.16;66.73
74895;BME280;63447;49.446;8.666;2023-09-08T02:33:24;100498.50;;;18.42;67.25
74895;BME280;63447;49.446;8.666;2023-09-08T02:35:52;100490.50;;;18.40;66.93
74895;BME280;63447;49.446;8.666;2023-09-08T02:38:17;100458.50;;;18.01;67.27
74895;BME280;63447;49.446;8.666;2023-09-08T02:40:43;100501.19;;;18.35;67.47
74895;BME280;63447;49.446;8.666;2023-09-08T02:43:11;100496.66;;;18.23;67.53
74895;BME280;63447;49.446;8.666;2023-09-08T02:45:40;100508.34;;;18.32;67.32
74895;BME280;63447;49.446;8.666;2023-09-08T02:48:08;100508.72;;;18.30;67.41
74895;BME280;63447;49.446;8.666;2023-09-08T02:50:33;100508.69;;;18.27;67.32
74895;BME280;63447;49.446;8.666;2023-09-08T02:53:01;100504.28;;;18.26;67.28
74895;BME280;63447;49.446;8.666;2023-09-08T02:55:26;100486.19;;;18.13;67.55
74895;BME280;63447;49.446;8.666;2023-09-08T02:57:52;100490.25;;;18.22;67.35
74895;BME280;63447;49.446;8.666;2023-09-08T03:00:17;100508.72;;;18.30;67.83
74895;BME280;63447;49.446;8.666;2023-09-08T03:02:46;100501.91;;;18.28;67.86
74895;BME280;63447;49.446;8.666;2023-09-08T03:05:11;100505.03;;;18.23;68.65
74895;BME280;63447;49.446;8.666;2023-09-08T03:07:36;100491.88;;;18.23;68.24
74895;BME280;63447;49.446;8.666;2023-09-08T03:10:03;100498.97;;;18.14;69.39
74895;BME280;63447;49.446;8.666;2023-09-08T03:12:30;100487.69;;;18.07;68.26
74895;BME280;63447;49.446;8.666;2023-09-08T03:14:55;100507.81;;;18.23;67.98
74895;BME280;63447;49.446;8.666;2023-09-08T03:17:23;100502.19;;;18.16;67.98
74895;BME280;63447;49.446;8.666;2023-09-08T03:19:48;100461.13;;;17.60;68.71
74895;BME280;63447;49.446;8.666;2023-09-08T03:22:13;100496.66;;;17.89;69.45
74895;BME280;63447;49.446;8.666;2023-09-08T03:24:39;100472.81;;;17.69;70.26
74895;BME280;63447;49.446;8.666;2023-09-08T03:27:04;100494.72;;;17.97;69.41
74895;BME280;63447;49.446;8.666;2023-09-08T03:29:29;100484.41;;;18.01;69.38
74895;BME280;63447;49.446;8.666;2023-09-08T03:31:54;100505.94;;;18.01;70.28
74895;BME280;63447;49.446;8.666;2023-09-08T03:34:22;100510.84;;;18.07;69.77
74895;BME280;63447;49.446;8.666;2023-09-08T03:36:49;100515.00;;;17.90;70.28
74895;BME280;63447;49.446;8.666;2023-09-08T03:39:14;100496.66;;;17.89;69.60
74895;BME280;63447;49.446;8.666;2023-09-08T03:41:39;100516.25;;;17.96;69.22
74895;BME280;63447;49.446;8.666;2023-09-08T03:44:05;100510.94;;;17.84;69.83
74895;BME280;63447;49.446;8.666;2023-09-08T03:46:32;100493.28;;;17.77;69.71
74895;BME280;63447;49.446;8.666;2023-09-08T03:48:58;100509.66;;;17.78;70.98
74895;BME280;63447;49.446;8.666;2023-09-08T03:51:27;100514.16;;;17.86;70.28
74895;BME280;63447;49.446;8.666;2023-09-08T03:53:53;100485.66;;;17.74;69.85
74895;BME280;63447;49.446;8.666;2023-09-08T03:56:18;100508.56;;;17.86;70.28
74895;BME280;63447;49.446;8.666;2023-09-08T03:58:45;100517.00;;;17.63;71.72
74895;BME280;63447;49.446;8.666;2023-09-08T04:01:10;100503.19;;;17.74;71.64
74895;BME280;63447;49.446;8.666;2023-09-08T04:03:36;100520.09;;;17.58;72.15
74895;BME280;63447;49.446;8.666;2023-09-08T04:06:01;100522.25;;;17.69;71.50
74895;BME280;63447;49.446;8.666;2023-09-08T04:08:26;100513.28;;;17.56;72.13
74895;BME280;63447;49.446;8.666;2023-09-08T04:10:54;100524.63;;;17.67;71.16
74895;BME280;63447;49.446;8.666;2023-09-08T04:13:19;100504.03;;;17.52;72.19
74895;BME280;63447;49.446;8.666;2023-09-08T04:15:44;100489.72;;;17.53;72.30
74895;BME280;63447;49.446;8.666;2023-09-08T04:18:10;100527.53;;;17.51;72.32
74895;BME280;63447;49.446;8.666;2023-09-08T04:20:35;100504.03;;;17.25;72.77
74895;BME280;63447;49.446;8.666;2023-09-08T04:23:00;100526.91;;;17.12;73.91
74895;BME280;63447;49.446;8.666;2023-09-08T04:25:26;100521.50;;;17.22;73.54
74895;BME280;63447;49.446;8.666;2023-09-08T04:27:51;100510.69;;;16.94;74.62
74895;BME280;63447;49.446;8.666;2023-09-08T04:30:18;100525.31;;;17.11;74.38
74895;BME280;63447;49.446;8.666;2023-09-08T04:32:44;100526.13;;;17.11;74.11
74895;BME280;63447;49.446;8.666;2023-09-08T04:35:11;100527.03;;;17.19;73.75
74895;BME280;63447;49.446;8.666;2023-09-08T04:37:39;100523.88;;;17.20;73.79
74895;BME280;63447;49.446;8.666;2023-09-08T04:40:05;100503.13;;;16.95;74.13
74895;BME280;63447;49.446;8.666;2023-09-08T04:42:32;100519.66;;;17.07;74.45
74895;BME280;63447;49.446;8.666;2023-09-08T04:44:57;100519.72;;;17.11;73.64
74895;BME280;63447;49.446;8.666;2023-09-08T04:47:23;100532.00;;;17.06;73.74
74895;BME280;63447;49.446;8.666;2023-09-08T04:49:48;100539.50;;;17.02;74.33
74895;BME280;63447;49.446;8.666;2023-09-08T04:52:16;100515.78;;;16.89;74.03
74895;BME280;63447;49.446;8.666;2023-09-08T04:54:41;100507.34;;;16.85;74.69
74895;BME280;63447;49.446;8.666;2023-09-08T04:57:07;100537.13;;;17.04;75.11
74895;BME280;63447;49.446;8.666;2023-09-08T04:59:34;100549.75;;;16.98;75.68
74895;BME280;63447;49.446;8.666;2023-09-08T05:02:04;100544.31;;;17.05;75.41
74895;BME280;63447;49.446;8.666;2023-09-08T05:04:29;100540.84;;;16.89;76.23
74895;BME280;63447;49.446;8.666;2023-09-08T05:06:55;100550.25;;;16.81;76.06
74895;BME280;63447;49.446;8.666;2023-09-08T05:09:21;100556.38;;;16.90;75.10
74895;BME280;63447;49.446;8.666;2023-09-08T05:11:46;100546.47;;;16.92;75.84
74895;BME280;63447;49.446;8.666;2023-09-08T05:14:11;100549.69;;;16.94;75.11
74895;BME280;63447;49.446;8.666;2023-09-08T05:16:37;100558.63;;;17.04;75.25
74895;BME280;63447;49.446;8.666;2023-09-08T05:19:09;100544.19;;;16.98;74.45
74895;BME280;63447;49.446;8.666;2023-09-08T05:21:39;100555.09;;;17.07;74.87
74895;BME280;63447;49.446;8.666;2023-09-08T05:24:05;100552.50;;;17.17;74.14
74895;BME280;63447;49.446;8.666;2023-09-08T05:26:31;100560.19;;;17.24;73.83
74895;BME280;63447;49.446;8.666;2023-09-08T05:28:58;100557.44;;;17.27;73.88
74895;BME280;63447;49.446;8.666;2023-09-08T05:31:23;100541.78;;;17.19;73.34
74895;BME280;63447;49.446;8.666;2023-09-08T05:33:51;100559.75;;;17.22;74.24
74895;BME280;63447;49.446;8.666;2023-09-08T05:36:20;100557.75;;;17.22;74.37
74895;BME280;63447;49.446;8.666;2023-09-08T05:38:45;100562.97;;;17.24;74.07
74895;BME280;63447;49.446;8.666;2023-09-08T05:41:10;100565.94;;;17.35;73.77
74895;BME280;63447;49.446;8.666;2023-09-08T05:43:36;100548.66;;;17.25;73.63
74895;BME280;63447;49.446;8.666;2023-09-08T05:46:01;100564.28;;;17.30;73.52
74895;BME280;63447;49.446;8.666;2023-09-08T05:48:29;100547.03;;;17.24;73.42
74895;BME280;63447;49.446;8.666;2023-09-08T05:50:57;100583.28;;;17.47;73.19
74895;BME280;63447;49.446;8.666;2023-09-08T05:53:22;100580.13;;;17.49;73.70
74895;BME280;63447;49.446;8.666;2023-09-08T05:55:47;100569.44;;;17.54;72.63
74895;BME280;63447;49.446;8.666;2023-09-08T05:58:13;100562.84;;;17.40;74.14
74895;BME280;63447;49.446;8.666;2023-09-08T06:00:38;100571.00;;;17.52;72.97
74895;BME280;63447;49.446;8.666;2023-09-08T06:03:06;100554.63;;;17.50;72.89
74895;BME280;63447;49.446;8.666;2023-09-08T06:05:36;100570.69;;;17.57;72.13
74895;BME280;63447;49.446;8.666;2023-09-08T06:08:04;100530.88;;;17.34;73.38
74895;BME280;63447;49.446;8.666;2023-09-08T06:10:32;100581.16;;;17.86;72.78
74895;BME280;63447;49.446;8.666;2023-09-08T06:12:57;100558.16;;;17.70;73.11
74895;BME280;63447;49.446;8.666;2023-09-08T06:15:22;100580.16;;;18.02;71.95
74895;BME280;63447;49.446;8.666;2023-09-08T06:17:48;100585.38;;;18.03;72.17
74895;BME280;63447;49.446;8.666;2023-09-08T06:20:15;100570.56;;;17.73;72.67
74895;BME280;63447;49.446;8.666;2023-09-08T06:22:41;100562.41;;;17.87;73.36
74895;BME280;63447;49.446;8.666;2023-09-08T06:25:07;100556.59;;;17.73;73.59
74895;BME280;63447;49.446;8.666;2023-09-08T06:27:32;100569.09;;;18.09;72.39
74895;BME280;63447;49.446;8.666;2023-09-08T06:29:58;100571.13;;;18.12;73.48
74895;BME280;63447;49.446;8.666;2023-09-08T06:32:23;100535.97;;;18.07;71.71
74895;BME280;63447;49.446;8.666;2023-09-08T06:34:48;100585.06;;;18.38;73.91
74895;BME280;63447;49.446;8.666;2023-09-08T06:37:14;100575.06;;;18.37;72.87
74895;BME280;63447;49.446;8.666;2023-09-08T06:39:39;100576.13;;;18.59;73.14
74895;BME280;63447;49.446;8.666;2023-09-08T06:42:04;100585.47;;;18.70;71.85
74895;BME280;63447;49.446;8.666;2023-09-08T06:44:30;100581.69;;;18.89;71.29
74895;BME280;63447;49.446;8.666;2023-09-08T06:46:55;100585.75;;;18.95;70.25
74895;BME280;63447;49.446;8.666;2023-09-08T06:49:20;100553.22;;;18.80;68.77
74895;BME280;63447;49.446;8.666;2023-09-08T06:51:48;100567.00;;;18.99;69.54
74895;BME280;63447;49.446;8.666;2023-09-08T06:54:16;100583.63;;;19.22;70.17
74895;BME280;63447;49.446;8.666;2023-09-08T06:56:41;100560.78;;;19.16;69.27
74895;BME280;63447;49.446;8.666;2023-09-08T06:59:07;100574.47;;;19.28;69.74
74895;BME280;63447;49.446;8.666;2023-09-08T07:01:32;100581.78;;;19.40;69.25
74895;BME280;63447;49.446;8.666;2023-09-08T07:04:00;100576.41;;;19.65;67.84
74895;BME280;63447;49.446;8.666;2023-09-08T07:06:25;100576.88;;;19.74;68.17
74895;BME280;63447;49.446;8.666;2023-09-08T07:08:50;100543.72;;;19.83;68.17
74895;BME280;63447;49.446;8.666;2023-09-08T07:11:18;100575.59;;;20.26;67.02
74895;BME280;63447;49.446;8.666;2023-09-08T07:13:44;100581.31;;;20.44;66.22
74895;BME280;63447;49.446;8.666;2023-09-08T07:16:09;100573.31;;;20.53;66.52
74895;BME280;63447;49.446;8.666;2023-09-08T07:21:05;100580.19;;;20.63;67.14
74895;BME280;63447;49.446;8.666;2023-09-08T07:23:31;100569.34;;;20.61;66.20
74895;BME280;63447;49.446;8.666;2023-09-08T07:25:59;100574.63;;;20.88;65.74
74895;BME280;63447;49.446;8.666;2023-09-08T07:28:27;100573.88;;;21.02;65.93
74895;BME280;63447;49.446;8.666;2023-09-08T07:31:01;100578.75;;;21.37;65.86
74895;BME280;63447;49.446;8.666;2023-09-08T07:33:31;100582.38;;;21.51;65.87
74895;BME280;63447;49.446;8.666;2023-09-08T07:35:56;100577.94;;;21.75;64.52
74895;BME280;63447;49.446;8.666;2023-09-08T07:38:24;100573.50;;;21.85;63.83
74895;BME280;63447;49.446;8.666;2023-09-08T07:40:55;100564.66;;;21.83;63.61
74895;BME280;63447;49.446;8.666;2023-09-08T07:43:20;100561.06;;;21.93;63.22
74895;BME280;63447;49.446;8.666;2023-09-08T07:45:45;100581.09;;;22.13;63.07
74895;BME280;63447;49.446;8.666;2023-09-08T07:48:13;100578.69;;;22.18;61.84
74895;BME280;63447;49.446;8.666;2023-09-08T07:50:41;100584.69;;;22.20;62.21
74895;BME280;63447;49.446;8.666;2023-09-08T07:53:06;100567.84;;;22.17;61.98
74895;BME280;63447;49.446;8.666;2023-09-08T07:55:31;100589.06;;;22.35;62.58
74895;BME280;63447;49.446;8.666;2023-09-08T07:58:00;100592.66;;;22.47;62.42
74895;BME280;63447;49.446;8.666;2023-09-08T08:00:29;100572.16;;;22.50;62.79
74895;BME280;63447;49.446;8.666;2023-09-08T08:02:55;100577.66;;;22.75;61.53
74895;BME280;63447;49.446;8.666;2023-09-08T08:05:21;100577.66;;;22.71;61.31
74895;BME280;63447;49.446;8.666;2023-09-08T08:20:49;100581.81;;;23.74;57.82
74895;BME280;63447;49.446;8.666;2023-09-08T08:23:14;100578.56;;;23.75;58.32
74895;BME280;63447;49.446;8.666;2023-09-08T08:25:40;100584.03;;;23.93;57.73
74895;BME280;63447;49.446;8.666;2023-09-08T08:28:05;100584.66;;;24.11;57.31
74895;BME280;63447;49.446;8.666;2023-09-08T08:30:33;100576.63;;;24.10;56.78
74895;BME280;63447;49.446;8.666;2023-09-08T08:32:58;100585.25;;;24.33;56.45
74895;BME280;63447;49.446;8.666;2023-09-08T08:35:23;100584.41;;;24.36;55.47
74895;BME280;63447;49.446;8.666;2023-09-08T08:37:51;100576.03;;;24.63;55.67
74895;BME280;63447;49.446;8.666;2023-09-08T08:40:16;100560.19;;;24.69;54.96
74895;BME280;63447;49.446;8.666;2023-09-08T08:42:44;100570.13;;;24.81;50.80
74895;BME280;63447;49.446;8.666;2023-09-08T08:45:13;100568.44;;;24.87;51.00
74895;BME280;63447;49.446;8.666;2023-09-08T08:47:44;100569.00;;;25.05;50.50
74895;BME280;63447;49.446;8.666;2023-09-08T08:50:09;100572.84;;;25.18;50.10
74895;BME280;63447;49.446;8.666;2023-09-08T08:52:36;100566.22;;;25.52;50.09
74895;BME280;63447;49.446;8.666;2023-09-08T08:55:02;100568.25;;;25.51;48.40
74895;BME280;63447;49.446;8.666;2023-09-08T08:57:29;100580.09;;;25.19;47.27
74895;BME280;63447;49.446;8.666;2023-09-08T08:59:56;100566.91;;;25.09;47.39
74895;BME280;63447;49.446;8.666;2023-09-08T09:02:22;100563.00;;;25.26;47.31
74895;BME280;63447;49.446;8.666;2023-09-08T09:04:50;100575.38;;;25.36;47.02
74895;BME280;63447;49.446;8.666;2023-09-08T09:07:18;100580.56;;;25.41;47.22
74895;BME280;63447;49.446;8.666;2023-09-08T09:09:48;100569.78;;;25.32;46.78
74895;BME280;63447;49.446;8.666;2023-09-08T09:12:14;100573.41;;;25.33;46.58
74895;BME280;63447;49.446;8.666;2023-09-08T09:14:45;100571.63;;;25.69;47.53
74895;BME280;63447;49.446;8.666;2023-09-08T09:17:11;100568.91;;;25.86;46.76
74895;BME280;63447;49.446;8.666;2023-09-08T09:19:40;100567.13;;;25.95;44.92
74895;BME280;63447;49.446;8.666;2023-09-08T09:22:07;100573.94;;;25.98;45.30
74895;BME280;63447;49.446;8.666;2023-09-08T09:24:38;100557.28;;;25.80;44.39
74895;BME280;63447;49.446;8.666;2023-09-08T09:27:07;100575.53;;;26.19;45.08
74895;BME280;63447;49.446;8.666;2023-09-08T09:29:47;100570.34;;;26.37;46.57
74895;BME280;63447;49.446;8.666;2023-09-08T09:32:13;100573.53;;;26.59;45.28
74895;BME280;63447;49.446;8.666;2023-09-08T09:34:53;100566.28;;;26.94;45.92
74895;BME280;63447;49.446;8.666;2023-09-08T09:37:19;100571.56;;;27.12;45.22
74895;BME280;63447;49.446;8.666;2023-09-08T09:39:53;100576.78;;;27.29;44.25
74895;BME280;63447;49.446;8.666;2023-09-08T09:42:19;100560.94;;;27.32;44.51
74895;BME280;63447;49.446;8.666;2023-09-08T09:44:47;100571.75;;;27.37;44.17
74895;BME280;63447;49.446;8.666;2023-09-08T09:47:13;100574.19;;;27.71;43.97
74895;BME280;63447;49.446;8.666;2023-09-08T09:49:43;100563.69;;;27.84;45.18
74895;BME280;63447;49.446;8.666;2023-09-08T09:52:11;100563.00;;;28.09;43.44
74895;BME280;63447;49.446;8.666;2023-09-08T09:54:40;100555.28;;;28.10;43.35
74895;BME280;63447;49.446;8.666;2023-09-08T09:57:06;100568.59;;;28.29;42.60
74895;BME280;63447;49.446;8.666;2023-09-08T09:59:32;100556.72;;;28.59;42.97
74895;BME280;63447;49.446;8.666;2023-09-08T10:01:59;100552.22;;;28.33;42.70
74895;BME280;63447;49.446;8.666;2023-09-08T10:04:25;100555.84;;;28.33;42.16
74895;BME280;63447;49.446;8.666;2023-09-08T10:06:54;100548.00;;;28.66;42.64
74895;BME280;63447;49.446;8.666;2023-09-08T10:09:23;100550.88;;;28.79;42.18
74895;BME280;63447;49.446;8.666;2023-09-08T10:11:49;100537.47;;;28.80;42.26
74895;BME280;63447;49.446;8.666;2023-09-08T10:14:18;100554.28;;;29.25;40.82
74895;BME280;63447;49.446;8.666;2023-09-08T10:16:46;100545.53;;;29.45;40.69
74895;BME280;63447;49.446;8.666;2023-09-08T10:19:17;100547.81;;;29.50;40.61
74895;BME280;63447;49.446;8.666;2023-09-08T10:21:48;100540.97;;;29.60;40.54
74895;BME280;63447;49.446;8.666;2023-09-08T10:24:22;100539.78;;;29.70;40.55
74895;BME280;63447;49.446;8.666;2023-09-08T10:27:18;100545.06;;;29.93;39.19
74895;BME280;63447;49.446;8.666;2023-09-08T10:29:46;100524.38;;;30.15;39.73
74895;BME280;63447;49.446;8.666;2023-09-08T10:32:13;100545.75;;;30.41;39.61
74895;BME280;63447;49.446;8.666;2023-09-08T10:34:50;100544.78;;;30.35;38.46
74895;BME280;63447;49.446;8.666;2023-09-08T10:37:24;100530.06;;;30.15;38.50
74895;BME280;63447;49.446;8.666;2023-09-08T10:39:51;100535.84;;;30.24;39.42
74895;BME280;63447;49.446;8.666;2023-09-08T10:42:24;100527.38;;;30.33;38.01
74895;BME280;63447;49.446;8.666;2023-09-08T10:44:59;100546.97;;;30.31;37.92
74895;BME280;63447;49.446;8.666;2023-09-08T10:47:31;100544.66;;;30.38;39.05
74895;BME280;63447;49.446;8.666;2023-09-08T10:49:59;100528.53;;;30.66;38.53
74895;BME280;63447;49.446;8.666;2023-09-08T10:52:25;100526.78;;;30.91;37.57
74895;BME280;63447;49.446;8.666;2023-09-08T10:54:52;100539.09;;;30.88;36.35
74895;BME280;63447;49.446;8.666;2023-09-08T10:57:23;100538.56;;;31.11;37.86
74895;BME280;63447;49.446;8.666;2023-09-08T10:59:56;100539.28;;;31.33;36.70
74895;BME280;63447;49.446;8.666;2023-09-08T11:05:10;100536.56;;;31.88;36.43
74895;BME280;63447;49.446;8.666;2023-09-08T11:07:37;100525.59;;;32.14;35.56
74895;BME280;63447;49.446;8.666;2023-09-08T11:10:03;100519.41;;;32.16;34.87
74895;BME280;63447;49.446;8.666;2023-09-08T11:12:28;100517.53;;;32.22;34.03
74895;BME280;63447;49.446;8.666;2023-09-08T11:14:54;100510.66;;;32.47;33.58
74895;BME280;63447;49.446;8.666;2023-09-08T11:17:20;100524.81;;;32.14;34.11
74895;BME280;63447;49.446;8.666;2023-09-08T11:19:46;100527.34;;;32.12;34.16
74895;BME280;63447;49.446;8.666;2023-09-08T11:22:16;100515.44;;;32.13;33.36
74895;BME280;63447;49.446;8.666;2023-09-08T11:24:43;100510.22;;;32.02;33.55
74895;BME280;63447;49.446;8.666;2023-09-08T11:27:13;100517.38;;;31.89;33.64
74895;BME280;63447;49.446;8.666;2023-09-08T11:29:38;100518.31;;;31.77;33.74
74895;BME280;63447;49.446;8.666;2023-09-08T11:32:08;100509.25;;;31.96;33.71
74895;BME280;63447;49.446;8.666;2023-09-08T11:34:35;100506.06;;;32.40;33.99
74895;BME280;63447;49.446;8.666;2023-09-08T11:37:07;100506.78;;;32.68;33.11
74895;BME280;63447;49.446;8.666;2023-09-08T11:39:40;100499.25;;;32.98;32.89
74895;BME280;63447;49.446;8.666;2023-09-08T11:42:07;100495.44;;;32.92;34.25
74895;BME280;63447;49.446;8.666;2023-09-08T11:44:37;100499.13;;;32.83;32.43
74895;BME280;63447;49.446;8.666;2023-09-08T11:47:03;100500.19;;;32.44;33.26
74895;BME280;63447;49.446;8.666;2023-09-08T11:52:01;100493.31;;;33.34;31.75
74895;BME280;63447;49.446;8.666;2023-09-08T11:54:27;100486.78;;;33.58;31.10
74895;BME280;63447;49.446;8.666;2023-09-08T11:56:54;100489.16;;;32.69;32.18
74895;BME280;63447;49.446;8.666;2023-09-08T11:59:20;100472.75;;;33.45;31.59
74895;BME280;63447;49.446;8.666;2023-09-08T12:01:45;100495.69;;;33.36;30.34
74895;BME280;63447;49.446;8.666;2023-09-08T12:04:21;100480.47;;;33.54;31.86
74895;BME280;63447;49.446;8.666;2023-09-08T12:06:48;100465.63;;;32.84;30.97
74895;BME280;63447;49.446;8.666;2023-09-08T12:09:14;100467.53;;;33.44;31.54
74895;BME280;63447;49.446;8.666;2023-09-08T12:11:42;100477.41;;;34.49;30.03
74895;BME280;63447;49.446;8.666;2023-09-08T12:14:10;100472.88;;;35.07;29.27
74895;BME280;63447;49.446;8.666;2023-09-08T12:16:36;100472.44;;;34.79;30.57
74895;BME280;63447;49.446;8.666;2023-09-08T12:19:05;100472.91;;;35.48;29.60
74895;BME280;63447;49.446;8.666;2023-09-08T12:21:31;100458.28;;;35.11;27.72
74895;BME280;63447;49.446;8.666;2023-09-08T12:23:58;100458.47;;;35.22;28.00
74895;BME280;63447;49.446;8.666;2023-09-08T12:26:26;100456.41;;;35.43;28.07
74895;BME280;63447;49.446;8.666;2023-09-08T12:28:52;100467.31;;;35.38;28.18
74895;BME280;63447;49.446;8.666;2023-09-08T12:31:18;100444.81;;;35.31;27.49
74895;BME280;63447;49.446;8.666;2023-09-08T12:33:44;100461.16;;;35.46;28.69
74895;BME280;63447;49.446;8.666;2023-09-08T12:36:17;100470.66;;;34.67;28.62
74895;BME280;63447;49.446;8.666;2023-09-08T12:38:52;100455.94;;;35.09;29.20
74895;BME280;63447;49.446;8.666;2023-09-08T12:41:19;100474.91;;;35.62;27.48
74895;BME280;63447;49.446;8.666;2023-09-08T12:43:45;100466.72;;;35.75;27.12
74895;BME280;63447;49.446;8.666;2023-09-08T12:46:11;100449.19;;;34.77;28.45
74895;BME280;63447;49.446;8.666;2023-09-08T12:48:36;100462.88;;;35.78;27.84
74895;BME280;63447;49.446;8.666;2023-09-08T12:51:02;100444.28;;;35.53;27.94
74895;BME280;63447;49.446;8.666;2023-09-08T12:55:56;100439.47;;;35.85;27.36
74895;BME280;63447;49.446;8.666;2023-09-08T12:58:27;100455.59;;;33.84;28.29
74895;BME280;63447;49.446;8.666;2023-09-08T13:00:55;100451.91;;;34.22;27.98
74895;BME280;63447;49.446;8.666;2023-09-08T13:03:25;100435.03;;;33.70;29.83
74895;BME280;63447;49.446;8.666;2023-09-08T13:05:50;100439.06;;;34.02;29.48
74895;BME280;63447;49.446;8.666;2023-09-08T13:08:18;100423.16;;;34.16;28.98
74895;BME280;63447;49.446;8.666;2023-09-08T13:10:43;100430.72;;;34.63;28.11
74895;BME280;63447;49.446;8.666;2023-09-08T13:13:08;100429.72;;;36.29;27.78
74895;BME280;63447;49.446;8.666;2023-09-08T13:15:34;100421.66;;;37.07;25.60